createdAt,value
2019-02-28T00:01:52.699Z,47.70
2019-02-28T00:04:21.419Z,48.17
2019-02-28T00:06:50.130Z,49.20
2019-02-28T00:09:18.886Z,51.30
2019-02-28T00:11:47.645Z,48.87
2019-02-28T00:14:16.374Z,50.00
2019-02-28T00:16:45.493Z,51.58
2019-02-28T00:19:14.214Z,49.75
2019-02-28T00:21:42.915Z,51.45
2019-02-28T00:24:11.649Z,52.05
2019-02-28T00:26:46.287Z,54.03
2019-02-28T00:29:10.786Z,52.03
2019-02-28T00:31:39.522Z,51.68
2019-02-28T00:34:08.245Z,52.30
2019-02-28T00:36:36.965Z,54.35
2019-02-28T00:39:06.402Z,52.85
2019-02-28T00:41:35.199Z,57.33
2019-02-28T00:44:04.472Z,54.70
2019-02-28T00:46:33.338Z,50.33
2019-02-28T00:49:03.951Z,51.53
2019-02-28T00:51:32.666Z,55.33
2019-02-28T00:54:01.413Z,53.90
2019-02-28T00:56:30.634Z,54.42
2019-02-28T00:59:00.517Z,54.75
2019-02-28T01:01:30.237Z,56.75
2019-02-28T01:03:59.092Z,52.20
2019-02-28T01:06:28.302Z,52.03
2019-02-28T01:08:57.041Z,54.05
2019-02-28T01:11:25.758Z,58.48
2019-02-28T01:13:54.474Z,55.70
2019-02-28T01:16:23.208Z,55.90
2019-02-28T01:18:51.920Z,54.55
2019-02-28T01:21:23.704Z,54.88
2019-02-28T01:23:55.278Z,56.68
2019-02-28T01:26:23.985Z,57.15
2019-02-28T01:28:52.705Z,55.95
2019-02-28T01:31:21.434Z,55.92
2019-02-28T01:33:50.148Z,57.03
2019-02-28T01:36:18.870Z,60.92
2019-02-28T01:38:47.614Z,59.15
2019-02-28T01:41:16.326Z,57.50
2019-02-28T01:43:45.109Z,55.33
2019-02-28T01:46:14.463Z,60.35
2019-02-28T01:48:44.298Z,64.35
2019-02-28T01:51:13.934Z,61.63
2019-02-28T01:53:42.685Z,63.00
2019-02-28T01:56:11.409Z,61.02
2019-02-28T01:58:40.446Z,67.92
2019-02-28T02:01:09.222Z,71.80
2019-02-28T02:03:40.658Z,63.45
2019-02-28T02:06:08.401Z,65.28
2019-02-28T02:08:37.844Z,66.70
2019-02-28T02:11:07.330Z,68.10
2019-02-28T02:13:36.936Z,66.45
2019-02-28T02:16:06.261Z,66.40
2019-02-28T02:18:34.977Z,65.32
2019-02-28T02:21:03.697Z,64.10
2019-02-28T02:23:32.430Z,64.95
2019-02-28T02:26:01.137Z,65.37
2019-02-28T02:28:29.853Z,69.42
2019-02-28T02:30:58.595Z,70.08
2019-02-28T02:33:27.334Z,70.20
2019-02-28T02:35:56.044Z,72.22
2019-02-28T02:38:24.760Z,73.12
2019-02-28T02:40:59.007Z,74.00
2019-02-28T02:43:23.895Z,73.10
2019-02-28T02:45:52.634Z,70.47
2019-02-28T02:48:21.346Z,73.65
2019-02-28T02:50:50.119Z,78.97
2019-02-28T02:53:19.760Z,77.22
2019-02-28T02:55:48.561Z,80.12
2019-02-28T02:58:17.324Z,79.72
2019-02-28T03:00:50.147Z,82.12
2019-02-28T03:03:17.728Z,86.75
2019-02-28T03:05:46.492Z,92.62
2019-02-28T03:08:15.242Z,95.53
2019-02-28T03:10:43.967Z,88.42
2019-02-28T03:13:12.677Z,81.97
2019-02-28T03:15:41.433Z,86.80
2019-02-28T03:18:10.161Z,90.50
2019-02-28T03:20:41.108Z,91.78
2019-02-28T03:23:09.386Z,93.03
2019-02-28T03:25:38.107Z,91.80
2019-02-28T03:28:06.835Z,94.70
2019-02-28T03:30:35.566Z,95.80
2019-02-28T03:33:04.427Z,91.08
2019-02-28T03:35:43.443Z,96.12
2019-02-28T03:38:10.572Z,94.35
2019-02-28T03:40:39.748Z,95.55
2019-02-28T03:43:06.946Z,91.53
2019-02-28T03:45:35.939Z,87.92
2019-02-28T03:48:04.718Z,82.72
2019-02-28T03:50:33.445Z,83.37
2019-02-28T03:53:02.257Z,93.00
2019-02-28T03:55:30.979Z,88.10
2019-02-28T03:58:04.373Z,83.50
2019-02-28T04:00:33.876Z,78.57
2019-02-28T04:03:00.813Z,79.97
2019-02-28T04:05:29.610Z,79.85
2019-02-28T04:07:58.424Z,84.97
2019-02-28T04:10:27.213Z,87.15
2019-02-28T04:12:58.366Z,84.77
2019-02-28T04:15:27.122Z,88.15
2019-02-28T04:17:56.289Z,77.45
2019-02-28T04:20:25.021Z,81.45
2019-02-28T04:22:58.827Z,82.00
2019-02-28T04:25:24.558Z,86.55
2019-02-28T04:27:53.923Z,83.85
2019-02-28T04:30:22.682Z,79.60
2019-02-28T04:32:51.447Z,85.20
2019-02-28T04:35:23.918Z,88.22
2019-02-28T04:37:50.627Z,93.27
2019-02-28T04:40:19.338Z,88.50
2019-02-28T04:42:48.053Z,91.85
2019-02-28T04:45:16.790Z,84.40
2019-02-28T04:47:45.507Z,89.70
2019-02-28T04:50:14.216Z,93.80
2019-02-28T04:52:47.934Z,88.35
2019-02-28T04:55:13.402Z,91.05
2019-02-28T04:57:42.114Z,92.08
2019-02-28T05:00:11.324Z,87.35
2019-02-28T05:02:40.076Z,88.12
2019-02-28T05:05:12.160Z,82.15
2019-02-28T05:07:39.393Z,84.87
2019-02-28T05:10:08.326Z,86.67
2019-02-28T05:12:39.961Z,87.02
2019-02-28T05:15:07.554Z,81.22
2019-02-28T05:17:36.265Z,73.78
2019-02-28T05:20:07.408Z,76.30
2019-02-28T05:22:35.615Z,85.15
2019-02-28T05:25:04.366Z,86.75
2019-02-28T05:27:35.362Z,89.55
2019-02-28T05:30:03.645Z,99.28
2019-02-28T05:32:35.633Z,99.15
2019-02-28T05:35:02.793Z,100.67
2019-02-28T05:37:31.575Z,94.95
2019-02-28T05:40:05.234Z,95.07
2019-02-28T05:42:30.706Z,89.47
2019-02-28T05:44:59.426Z,89.50
2019-02-28T05:47:29.406Z,92.50
2019-02-28T05:49:58.582Z,96.60
2019-02-28T05:52:27.311Z,91.02
2019-02-28T05:55:15.326Z,95.75
2019-02-28T05:57:44.891Z,97.12
2019-02-28T06:00:15.173Z,103.15
2019-02-28T06:02:43.950Z,100.45
2019-02-28T06:05:12.817Z,101.62
2019-02-28T06:07:41.792Z,102.20
2019-02-28T06:10:10.527Z,97.33
2019-02-28T06:12:40.566Z,100.07
2019-02-28T06:15:09.946Z,104.30
2019-02-28T06:17:38.742Z,100.87
2019-02-28T06:20:08.226Z,100.33
2019-02-28T06:22:37.002Z,101.47
2019-02-28T06:25:05.742Z,104.03
2019-02-28T06:27:41.054Z,102.80
2019-02-28T06:30:08.659Z,107.35
2019-02-28T06:32:35.789Z,103.47
2019-02-28T06:35:05.853Z,100.07
2019-02-28T06:37:35.396Z,97.25
2019-02-28T06:40:06.138Z,102.82
2019-02-28T06:42:34.889Z,100.65
2019-02-28T06:45:03.773Z,107.03
2019-02-28T06:47:32.594Z,107.52
2019-02-28T06:50:01.346Z,114.70
2019-02-28T06:52:30.046Z,110.22
2019-02-28T06:54:58.795Z,113.30
2019-02-28T06:57:28.462Z,110.12
2019-02-28T06:59:57.215Z,114.05
2019-02-28T07:02:28.484Z,115.85
2019-02-28T07:04:56.401Z,124.40
2019-02-28T07:07:25.135Z,124.85
2019-02-28T07:09:53.855Z,121.05
2019-02-28T07:12:22.558Z,125.85
2019-02-28T07:14:51.376Z,121.45
2019-02-28T07:17:20.082Z,123.22
2019-02-28T07:19:48.822Z,123.30
2019-02-28T07:22:19.679Z,122.37
2019-02-28T07:24:48.418Z,119.97
2019-02-28T07:27:17.127Z,125.33
2019-02-28T07:29:45.874Z,125.20
2019-02-28T07:32:16.481Z,121.22
2019-02-28T07:34:45.268Z,124.25
2019-02-28T07:37:18.547Z,122.87
2019-02-28T07:39:44.446Z,123.67
2019-02-28T07:42:15.060Z,123.15
2019-02-28T07:44:43.797Z,117.42
2019-02-28T07:47:16.994Z,120.45
2019-02-28T07:49:42.957Z,125.78
2019-02-28T07:52:11.690Z,125.10
2019-02-28T07:54:59.698Z,131.85
2019-02-28T07:57:28.462Z,136.88
2019-02-28T07:59:57.178Z,135.45
2019-02-28T08:02:27.255Z,136.72
2019-02-28T08:04:56.083Z,141.68
2019-02-28T08:07:24.795Z,138.12
2019-02-28T08:09:53.505Z,136.82
2019-02-28T08:12:22.250Z,143.00
2019-02-28T08:14:51.038Z,140.73
2019-02-28T08:17:19.754Z,137.85
2019-02-28T08:19:48.527Z,139.10
2019-02-28T08:22:23.301Z,135.45
2019-02-28T08:24:47.706Z,139.60
2019-02-28T08:27:16.426Z,136.52
2019-02-28T08:29:46.012Z,126.35
2019-02-28T08:32:14.923Z,129.05
2019-02-28T08:34:43.637Z,129.23
2019-02-28T08:37:12.382Z,130.45
2019-02-28T08:39:42.059Z,124.22
2019-02-28T08:42:10.996Z,128.05
2019-02-28T08:44:39.736Z,129.23
2019-02-28T08:47:08.527Z,130.45
2019-02-28T08:49:42.282Z,129.60
2019-02-28T08:52:07.742Z,128.60
2019-02-28T08:54:36.546Z,124.02
2019-02-28T08:57:05.282Z,129.15
2019-02-28T08:59:34.054Z,129.53
2019-02-28T09:02:02.850Z,124.60
2019-02-28T09:04:40.735Z,122.58
2019-02-28T09:07:02.023Z,124.35
2019-02-28T09:09:31.681Z,115.47
2019-02-28T09:12:01.202Z,118.30
2019-02-28T09:14:29.911Z,117.10
2019-02-28T09:16:58.651Z,119.67
2019-02-28T09:19:27.380Z,117.13
2019-02-28T09:21:56.094Z,113.32
2019-02-28T09:24:25.995Z,113.37
2019-02-28T09:26:54.884Z,112.80
2019-02-28T09:29:23.674Z,112.62
2019-02-28T09:31:52.730Z,112.62
2019-02-28T09:34:21.470Z,110.80
2019-02-28T09:36:55.232Z,109.55
2019-02-28T09:39:20.654Z,111.68
2019-02-28T09:41:49.967Z,109.17
2019-02-28T09:44:18.734Z,108.95
2019-02-28T09:46:50.646Z,108.12
2019-02-28T09:49:17.932Z,110.65
2019-02-28T09:51:46.659Z,106.30
2019-02-28T09:54:15.405Z,111.37
2019-02-28T09:56:44.526Z,111.50
2019-02-28T09:59:14.109Z,107.67
2019-02-28T10:01:42.889Z,104.00
2019-02-28T10:04:11.584Z,103.53
2019-02-28T10:06:40.286Z,103.93
2019-02-28T10:09:09.529Z,100.20
2019-02-28T10:11:40.426Z,99.93
2019-02-28T10:14:08.939Z,95.53
2019-02-28T10:16:37.682Z,85.63
2019-02-28T10:19:10.194Z,80.80
2019-02-28T10:21:39.649Z,80.17
2019-02-28T10:24:08.534Z,74.57
2019-02-28T10:26:37.301Z,76.00
2019-02-28T10:29:07.578Z,75.07
2019-02-28T10:31:38.383Z,74.67
2019-02-28T10:34:07.054Z,69.93
2019-02-28T10:36:35.874Z,67.97
2019-02-28T10:39:08.945Z,65.00
2019-02-28T10:41:36.498Z,63.73
2019-02-28T10:44:05.264Z,59.10
2019-02-28T10:46:35.996Z,60.03
2019-02-28T10:49:04.534Z,55.70
2019-02-28T10:51:52.536Z,53.63
2019-02-28T10:54:21.245Z,51.27
2019-02-28T10:56:49.957Z,49.77
2019-02-28T10:59:21.366Z,47.87
2019-02-28T11:01:49.162Z,46.23
2019-02-28T11:04:17.904Z,46.70
2019-02-28T11:06:46.888Z,49.53
2019-02-28T11:09:21.811Z,55.37
2019-02-28T11:11:50.150Z,56.60
2019-02-28T11:14:18.933Z,59.43
2019-02-28T11:16:47.653Z,61.07
2019-02-28T11:19:18.630Z,65.70
2019-02-28T11:21:46.962Z,62.27
2019-02-28T11:24:15.675Z,66.63
2019-02-28T11:26:44.743Z,68.77
2019-02-28T11:29:16.430Z,74.80
2019-02-28T11:31:45.164Z,74.60
2019-02-28T11:34:15.011Z,74.23
2019-02-28T11:36:44.831Z,77.93
2019-02-28T11:39:20.895Z,80.07
2019-02-28T11:41:52.643Z,73.63
2019-02-28T11:44:20.059Z,73.37
2019-02-28T11:46:48.950Z,71.13
2019-02-28T11:49:17.703Z,66.37
2019-02-28T11:51:49.366Z,67.67
2019-02-28T11:54:16.908Z,70.03
2019-02-28T11:56:45.622Z,69.30
2019-02-28T11:59:14.358Z,73.17
2019-02-28T12:01:47.409Z,71.57
2019-02-28T12:04:13.554Z,70.33
2019-02-28T12:06:42.322Z,71.37
2019-02-28T12:09:11.617Z,70.93
2019-02-28T12:11:40.355Z,66.03
2019-02-28T12:14:09.258Z,64.63
2019-02-28T12:16:38.065Z,59.73
2019-02-28T12:19:06.769Z,56.50
2019-02-28T12:21:37.982Z,52.63
2019-02-28T12:24:05.946Z,52.13
2019-02-28T12:26:34.682Z,47.90
2019-02-28T12:29:03.434Z,46.97
2019-02-28T12:31:35.567Z,46.37
2019-02-28T12:34:02.622Z,44.87
2019-02-28T12:36:31.322Z,44.67
2019-02-28T12:39:02.301Z,44.37
2019-02-28T12:41:30.530Z,39.43
2019-02-28T12:43:59.331Z,36.83
2019-02-28T12:46:28.046Z,35.73
2019-02-28T12:48:56.773Z,34.27
2019-02-28T12:51:25.473Z,31.40
2019-02-28T12:53:56.215Z,32.20
2019-02-28T12:56:24.650Z,29.83
2019-02-28T12:58:53.369Z,28.73
2019-02-28T13:01:22.074Z,26.90
2019-02-28T13:03:54.630Z,25.00
2019-02-28T13:06:23.671Z,24.03
2019-02-28T13:08:53.448Z,22.23
2019-02-28T13:11:24.177Z,21.60
2019-02-28T13:13:52.882Z,21.17
2019-02-28T13:16:40.994Z,20.00
2019-02-28T13:19:09.729Z,17.63
2019-02-28T13:21:46.890Z,15.63
2019-02-28T13:24:14.624Z,14.20
2019-02-28T13:26:43.358Z,14.33
2019-02-28T13:29:12.154Z,14.43
2019-02-28T13:31:40.968Z,13.70
2019-02-28T13:34:09.798Z,13.73
2019-02-28T13:36:38.541Z,10.90
2019-02-28T13:39:08.905Z,10.90
2019-02-28T13:41:37.615Z,11.23
2019-02-28T13:44:06.405Z,12.43
2019-02-28T13:46:35.157Z,14.57
2019-02-28T13:49:03.867Z,14.37
2019-02-28T13:51:36.649Z,13.40
2019-02-28T13:54:07.670Z,12.30
2019-02-28T13:56:36.399Z,11.83
2019-02-28T13:59:05.169Z,11.70
2019-02-28T14:01:35.310Z,9.00
2019-02-28T14:04:04.022Z,8.93
2019-02-28T14:06:33.682Z,8.83
2019-02-28T14:09:02.598Z,8.60
2019-02-28T14:11:31.339Z,10.40
2019-02-28T14:14:00.106Z,10.97
2019-02-28T14:16:28.833Z,8.37
2019-02-28T14:19:00.370Z,9.83
2019-02-28T14:21:29.085Z,7.97
2019-02-28T14:23:59.140Z,9.27
2019-02-28T14:26:31.041Z,8.70
2019-02-28T14:28:59.578Z,7.50
2019-02-28T14:31:29.581Z,8.40
2019-02-28T14:33:58.742Z,7.90
2019-02-28T14:36:27.494Z,8.27
2019-02-28T14:38:56.228Z,6.53
2019-02-28T14:41:28.422Z,7.90
2019-02-28T14:43:56.060Z,7.83
2019-02-28T14:46:25.714Z,6.10
2019-02-28T14:48:54.432Z,6.73
2019-02-28T14:51:25.495Z,5.83
2019-02-28T14:53:53.645Z,6.37
2019-02-28T14:56:22.425Z,5.97
2019-02-28T14:58:54.475Z,5.10
2019-02-28T15:01:21.696Z,4.83
2019-02-28T15:03:50.394Z,5.37
2019-02-28T15:06:19.206Z,5.90
2019-02-28T15:08:51.054Z,5.27
2019-02-28T15:11:19.181Z,6.20
2019-02-28T15:13:47.915Z,5.63
2019-02-28T15:16:16.630Z,4.57
2019-02-28T15:18:47.716Z,5.67
2019-02-28T15:21:15.803Z,5.80
2019-02-28T15:23:44.527Z,6.87
2019-02-28T15:26:13.227Z,6.23
2019-02-28T15:28:41.963Z,6.33
2019-02-28T15:31:10.733Z,6.23
2019-02-28T15:33:39.533Z,4.83
2019-02-28T15:36:08.463Z,4.80
2019-02-28T15:38:37.248Z,5.47
2019-02-28T15:41:06.055Z,6.03
2019-02-28T15:43:34.833Z,6.10
2019-02-28T15:46:03.548Z,6.53
2019-02-28T15:48:34.581Z,6.70
2019-02-28T15:51:03.553Z,6.23
2019-02-28T15:53:34.258Z,5.73
2019-02-28T15:56:12.711Z,6.22
2019-02-28T15:58:33.430Z,5.33
2019-02-28T16:01:02.208Z,6.57
2019-02-28T16:03:31.014Z,6.07
2019-02-28T16:05:59.794Z,6.10
2019-02-28T16:08:28.695Z,7.30
2019-02-28T16:10:57.502Z,6.53
2019-02-28T16:13:26.610Z,7.07
2019-02-28T16:15:56.862Z,5.87
2019-02-28T16:18:25.626Z,5.87
2019-02-28T16:20:54.350Z,5.53
2019-02-28T16:23:23.532Z,5.93
2019-02-28T16:25:53.666Z,5.83
2019-02-28T16:28:22.366Z,7.57
2019-02-28T16:30:51.130Z,6.53
2019-02-28T16:33:20.898Z,6.40
2019-02-28T16:35:51.379Z,5.67
2019-02-28T16:38:20.246Z,6.23
2019-02-28T16:40:49.045Z,6.50
2019-02-28T16:43:20.852Z,6.53
2019-02-28T16:45:49.935Z,6.00
2019-02-28T16:48:18.778Z,6.50
2019-02-28T16:50:50.621Z,6.07
2019-02-28T16:53:18.219Z,6.33
2019-02-28T16:55:46.944Z,6.30
2019-02-28T16:58:18.670Z,7.37
2019-02-28T17:00:47.060Z,6.75
2019-02-28T17:03:15.986Z,6.83
2019-02-28T17:05:44.840Z,6.10
2019-02-28T17:08:15.563Z,5.92
2019-02-28T17:10:44.914Z,6.70
2019-02-28T17:13:22.365Z,6.28
2019-02-28T17:16:02.622Z,5.70
2019-02-28T17:18:32.374Z,6.78
2019-02-28T17:21:01.111Z,6.37
2019-02-28T17:23:29.842Z,5.15
2019-02-28T17:25:58.641Z,4.90
2019-02-28T17:28:49.946Z,5.53
2019-02-28T17:31:44.448Z,6.60
2019-02-28T17:34:17.908Z,4.30
2019-02-28T17:36:48.618Z,5.30
2019-02-28T17:39:18.287Z,4.73
2019-02-28T17:41:47.050Z,4.93
2019-02-28T17:45:03.160Z,4.83
2019-02-28T17:48:04.768Z,5.07
2019-02-28T17:51:04.343Z,4.67
2019-02-28T17:53:55.870Z,4.40
2019-02-28T17:57:24.386Z,6.13
2019-02-28T18:00:30.434Z,5.13
2019-02-28T18:03:25.519Z,6.50
2019-02-28T18:06:43.744Z,7.00
2019-02-28T18:09:51.712Z,7.63
2019-02-28T18:12:55.813Z,8.33
2019-02-28T18:15:45.981Z,7.30
2019-02-28T18:18:54.134Z,8.17
2019-02-28T18:21:51.110Z,7.87
2019-02-28T18:25:05.510Z,7.27
2019-02-28T18:28:15.023Z,7.07
2019-02-28T18:31:19.076Z,7.53
2019-02-28T18:34:01.649Z,6.90
2019-02-28T18:36:31.479Z,8.23
2019-02-28T18:39:00.194Z,7.27
2019-02-28T18:41:28.904Z,8.67
2019-02-28T18:44:00.079Z,8.47
2019-02-28T18:46:29.545Z,8.50
2019-02-28T18:48:58.534Z,8.10
2019-02-28T18:51:28.114Z,8.00
2019-02-28T18:53:56.830Z,8.95
2019-02-28T18:56:25.560Z,11.28
2019-02-28T18:58:54.311Z,10.93
2019-02-28T19:01:25.540Z,8.77
2019-02-28T19:03:54.969Z,9.37
2019-02-28T19:06:23.790Z,8.80
2019-02-28T19:08:52.602Z,10.40
2019-02-28T19:11:21.331Z,9.63
2019-02-28T19:13:50.126Z,10.78
2019-02-28T19:16:18.931Z,11.80
2019-02-28T19:18:48.018Z,11.20
2019-02-28T19:21:16.983Z,11.80
2019-02-28T19:23:46.487Z,12.67
2019-02-28T19:26:17.519Z,12.37
2019-02-28T19:28:48.367Z,12.30
2019-02-28T19:31:17.202Z,12.53
2019-02-28T19:33:46.128Z,14.07
2019-02-28T19:36:19.133Z,14.73
2019-02-28T19:38:47.905Z,12.77
2019-02-28T19:41:16.786Z,14.63
2019-02-28T19:43:45.618Z,14.35
2019-02-28T19:46:14.710Z,10.78
2019-02-28T19:48:43.852Z,11.27
2019-02-28T19:51:12.599Z,11.97
2019-02-28T19:53:41.425Z,13.78
2019-02-28T19:56:10.262Z,11.63
2019-02-28T19:58:39.046Z,13.05
2019-02-28T20:01:07.783Z,13.20
2019-02-28T20:03:36.585Z,15.47
2019-02-28T20:06:05.318Z,12.45
2019-02-28T20:08:34.026Z,13.48
2019-02-28T20:11:02.758Z,15.55
2019-02-28T20:13:31.529Z,13.28
2019-02-28T20:16:01.058Z,13.85
2019-02-28T20:18:29.795Z,13.35
2019-02-28T20:20:59.337Z,13.88
2019-02-28T20:23:28.057Z,13.75
2019-02-28T20:25:56.848Z,14.85
2019-02-28T20:28:25.734Z,14.78
2019-02-28T20:30:54.530Z,11.38
2019-02-28T20:33:23.250Z,13.50
2019-02-28T20:35:52.018Z,13.90
2019-02-28T20:38:20.730Z,11.40
2019-02-28T20:40:49.606Z,10.55
2019-02-28T20:43:18.350Z,10.72
2019-02-28T20:45:47.052Z,11.43
2019-02-28T20:48:16.238Z,10.65
2019-02-28T20:50:46.272Z,10.93
2019-02-28T20:53:15.197Z,11.30
2019-02-28T20:55:43.899Z,10.95
2019-02-28T20:58:12.657Z,10.75
2019-02-28T21:00:41.478Z,11.83
2019-02-28T21:03:10.202Z,12.20
2019-02-28T21:05:38.925Z,12.13
2019-02-28T21:08:07.770Z,12.70
2019-02-28T21:10:36.554Z,10.87
2019-02-28T21:13:05.266Z,10.88
2019-02-28T21:15:34.078Z,10.82
2019-02-28T21:18:02.943Z,10.73
2019-02-28T21:20:31.651Z,11.57
2019-02-28T21:23:00.398Z,10.93
2019-02-28T21:25:29.139Z,11.57
2019-02-28T21:27:58.338Z,9.45
2019-02-28T21:30:46.948Z,10.13
2019-02-28T21:33:16.703Z,9.85
2019-02-28T21:35:45.457Z,10.05
2019-02-28T21:38:14.330Z,11.25
2019-02-28T21:40:43.050Z,9.75
2019-02-28T21:43:11.819Z,8.85
2019-02-28T21:45:40.549Z,8.73
2019-02-28T21:48:09.263Z,9.40
2019-02-28T21:50:37.967Z,9.68
2019-02-28T21:53:06.711Z,10.30
2019-02-28T21:55:35.447Z,11.53
2019-02-28T21:58:04.199Z,12.13
2019-02-28T22:00:32.958Z,12.85
2019-02-28T22:03:01.679Z,12.20
2019-02-28T22:05:30.425Z,13.53
2019-02-28T22:07:59.142Z,15.90
2019-02-28T22:10:27.873Z,14.78
2019-02-28T22:12:56.610Z,15.30
2019-02-28T22:15:25.369Z,15.08
2019-02-28T22:17:54.136Z,16.85
2019-02-28T22:20:22.897Z,16.90
2019-02-28T22:22:51.614Z,16.97
2019-02-28T22:25:20.311Z,18.00
2019-02-28T22:27:49.061Z,19.25
2019-02-28T22:30:50.207Z,18.62
2019-02-28T22:33:32.038Z,19.60
2019-02-28T22:36:00.990Z,21.35
2019-02-28T22:38:29.714Z,21.73
2019-02-28T22:40:58.464Z,21.70
2019-02-28T22:43:27.187Z,21.20
2019-02-28T22:45:55.891Z,24.00
2019-02-28T22:48:24.726Z,25.62
2019-02-28T22:50:53.514Z,26.93
2019-02-28T22:53:22.234Z,38.73
2019-02-28T22:55:50.954Z,34.30
2019-02-28T22:58:19.691Z,39.38
2019-02-28T23:01:07.875Z,54.50
2019-02-28T23:03:36.588Z,69.35
2019-02-28T23:06:05.676Z,80.30
2019-02-28T23:08:34.765Z,83.55
2019-02-28T23:11:03.539Z,97.55
2019-02-28T23:13:32.249Z,104.30
2019-02-28T23:16:01.532Z,104.75
2019-02-28T23:18:30.366Z,103.97
2019-02-28T23:20:59.075Z,98.52
2019-02-28T23:23:28.650Z,109.15
2019-02-28T23:26:07.282Z,114.30
2019-02-28T23:28:38.411Z,120.15
2019-02-28T23:31:53.550Z,119.70
2019-02-28T23:34:43.332Z,119.82
2019-02-28T23:37:12.147Z,117.53
2019-02-28T23:39:40.867Z,121.07
2019-02-28T23:42:09.626Z,130.12
2019-02-28T23:44:38.767Z,135.60
2019-02-28T23:47:07.498Z,149.10
2019-02-28T23:49:37.102Z,167.43
2019-02-28T23:52:05.878Z,192.82
2019-02-28T23:54:34.598Z,265.25
2019-02-28T23:57:03.370Z,254.53
2019-02-28T23:59:32.150Z,264.05
